createdAt,value
2018-07-27T00:00:20.340Z,8.70
2018-07-27T00:02:52.268Z,9.70
2018-07-27T00:05:24.767Z,8.33
2018-07-27T00:07:56.622Z,10.10
2018-07-27T00:10:28.547Z,8.90
2018-07-27T00:13:00.548Z,9.37
2018-07-27T00:15:32.696Z,9.97
2018-07-27T00:18:04.693Z,8.23
2018-07-27T00:20:36.457Z,8.83
2018-07-27T00:23:09.048Z,7.40
2018-07-27T00:25:41.354Z,9.07
2018-07-27T00:28:13.795Z,8.10
2018-07-27T00:30:45.807Z,8.33
2018-07-27T00:33:17.946Z,7.63
2018-07-27T00:35:50.172Z,9.10
2018-07-27T00:38:22.255Z,8.47
2018-07-27T00:40:54.216Z,8.00
2018-07-27T00:43:26.642Z,7.70
2018-07-27T00:45:58.960Z,7.30
2018-07-27T00:48:31.311Z,8.80
2018-07-27T00:51:03.262Z,7.93
2018-07-27T00:53:35.270Z,7.33
2018-07-27T00:56:07.939Z,7.27
2018-07-27T00:58:40.605Z,7.93
2018-07-27T01:01:13.101Z,6.60
2018-07-27T01:03:45.519Z,6.63
2018-07-27T01:06:17.499Z,7.20
2018-07-27T01:08:49.430Z,6.73
2018-07-27T01:11:21.620Z,7.47
2018-07-27T01:13:53.530Z,6.50
2018-07-27T01:16:25.556Z,6.20
2018-07-27T01:18:57.616Z,6.80
2018-07-27T01:21:30.346Z,6.87
2018-07-27T01:24:02.406Z,8.20
2018-07-27T01:26:34.395Z,7.50
2018-07-27T01:29:06.492Z,7.20
2018-07-27T01:31:38.563Z,7.27
2018-07-27T01:34:10.481Z,7.90
2018-07-27T01:36:42.586Z,7.00
2018-07-27T01:39:15.732Z,6.37
2018-07-27T01:42:01.687Z,7.60
2018-07-27T01:44:35.627Z,7.87
2018-07-27T01:47:08.607Z,7.73
2018-07-27T01:49:40.596Z,7.00
2018-07-27T01:52:23.968Z,8.00
2018-07-27T01:54:56.625Z,7.90
2018-07-27T01:57:28.604Z,7.83
2018-07-27T02:00:00.603Z,8.37
2018-07-27T02:02:31.809Z,8.20
2018-07-27T02:05:03.759Z,7.57
2018-07-27T02:07:35.940Z,8.20
2018-07-27T02:10:07.918Z,7.83
2018-07-27T02:12:40.251Z,8.37
2018-07-27T02:15:12.209Z,9.03
2018-07-27T02:17:44.271Z,8.60
2018-07-27T02:20:16.133Z,9.03
2018-07-27T02:22:48.288Z,8.70
2018-07-27T02:25:20.549Z,9.17
2018-07-27T02:27:52.761Z,8.00
2018-07-27T02:30:24.706Z,9.53
2018-07-27T02:32:56.696Z,8.60
2018-07-27T02:35:28.766Z,7.80
2018-07-27T02:38:00.811Z,9.03
2018-07-27T02:40:32.827Z,7.43
2018-07-27T02:43:05.021Z,7.83
2018-07-27T02:45:37.383Z,8.50
2018-07-27T02:48:09.655Z,7.40
2018-07-27T02:50:41.770Z,7.40
2018-07-27T02:53:14.030Z,8.17
2018-07-27T02:55:46.043Z,7.90
2018-07-27T02:58:18.147Z,7.97
2018-07-27T03:00:50.300Z,9.90
2018-07-27T03:03:22.319Z,7.63
2018-07-27T03:05:54.549Z,9.30
2018-07-27T03:08:26.787Z,7.83
2018-07-27T03:10:58.879Z,8.60
2018-07-27T03:13:31.045Z,8.80
2018-07-27T03:16:03.207Z,8.77
2018-07-27T03:18:35.284Z,8.83
2018-07-27T03:21:07.255Z,8.73
2018-07-27T03:23:39.135Z,9.03
2018-07-27T03:26:11.168Z,9.10
2018-07-27T03:28:43.123Z,7.73
2018-07-27T03:31:15.287Z,9.03
2018-07-27T03:33:47.367Z,8.73
2018-07-27T03:36:19.454Z,7.97
2018-07-27T03:38:51.458Z,8.70
2018-07-27T03:41:23.514Z,8.47
2018-07-27T03:43:55.493Z,7.90
2018-07-27T03:46:27.939Z,7.40
2018-07-27T03:48:59.951Z,8.60
2018-07-27T03:51:32.067Z,7.70
2018-07-27T03:54:04.189Z,7.70
2018-07-27T03:56:36.123Z,8.07
2018-07-27T03:59:08.283Z,7.90
2018-07-27T04:01:40.531Z,7.43
2018-07-27T04:04:12.705Z,8.17
2018-07-27T04:06:44.005Z,7.90
2018-07-27T04:09:16.033Z,7.87
2018-07-27T04:11:48.247Z,7.57
2018-07-27T04:14:20.475Z,8.10
2018-07-27T04:16:53.050Z,7.67
2018-07-27T04:19:25.029Z,7.10
2018-07-27T04:22:03.926Z,6.70
2018-07-27T04:24:36.199Z,7.03
2018-07-27T04:27:07.477Z,6.60
2018-07-27T04:29:39.454Z,7.30
2018-07-27T04:32:11.538Z,8.20
2018-07-27T04:34:43.741Z,7.27
2018-07-27T04:37:15.976Z,6.70
2018-07-27T04:39:47.709Z,6.60
2018-07-27T04:42:19.795Z,7.00
2018-07-27T04:44:51.820Z,6.93
2018-07-27T04:47:23.885Z,7.50
2018-07-27T04:49:55.970Z,6.93
2018-07-27T04:52:28.226Z,6.77
2018-07-27T04:55:00.176Z,6.70
2018-07-27T04:57:32.372Z,6.90
2018-07-27T05:00:04.778Z,7.13
2018-07-27T05:02:36.804Z,6.83
2018-07-27T05:05:08.932Z,6.27
2018-07-27T05:07:41.055Z,6.37
2018-07-27T05:10:18.169Z,7.00
2018-07-27T05:12:50.234Z,6.20
2018-07-27T05:15:22.401Z,7.17
2018-07-27T05:17:54.538Z,6.13
2018-07-27T05:20:26.616Z,5.90
2018-07-27T05:22:58.642Z,6.97
2018-07-27T05:25:30.619Z,6.17
2018-07-27T05:28:02.563Z,7.00
2018-07-27T05:30:34.654Z,7.03
2018-07-27T05:33:07.235Z,7.23
2018-07-27T05:35:39.540Z,6.63
2018-07-27T05:38:11.878Z,7.20
2018-07-27T05:40:43.834Z,7.27
2018-07-27T05:43:15.871Z,6.90
2018-07-27T05:45:48.033Z,6.93
2018-07-27T05:48:20.238Z,6.17
2018-07-27T05:50:52.513Z,6.50
2018-07-27T05:53:24.476Z,9.93
2018-07-27T05:55:56.585Z,7.27
2018-07-27T05:58:28.792Z,7.07
2018-07-27T06:01:01.085Z,6.70
2018-07-27T06:03:33.243Z,7.30
2018-07-27T06:06:05.377Z,6.73
2018-07-27T06:08:37.714Z,6.90
2018-07-27T06:11:10.049Z,7.47
2018-07-27T06:13:42.466Z,7.17
2018-07-27T06:16:14.731Z,7.60
2018-07-27T06:18:47.363Z,7.30
2018-07-27T06:21:19.188Z,6.90
2018-07-27T06:23:51.312Z,7.53
2018-07-27T06:26:23.479Z,6.37
2018-07-27T06:28:56.391Z,6.53
2018-07-27T06:31:28.355Z,7.40
2018-07-27T06:34:00.515Z,7.13
2018-07-27T06:36:32.654Z,7.53
2018-07-27T06:39:05.432Z,7.70
2018-07-27T06:41:37.564Z,7.33
2018-07-27T06:44:09.896Z,7.60
2018-07-27T06:46:41.984Z,6.87
2018-07-27T06:49:14.119Z,7.13
2018-07-27T06:51:46.241Z,7.47
2018-07-27T06:54:18.116Z,6.93
2018-07-27T06:56:50.444Z,7.80
2018-07-27T06:59:22.516Z,7.60
2018-07-27T07:01:54.711Z,6.83
2018-07-27T07:04:26.887Z,7.20
2018-07-27T07:06:58.926Z,7.37
2018-07-27T07:09:31.048Z,7.30
2018-07-27T07:12:03.087Z,7.03
2018-07-27T07:14:35.347Z,6.27
2018-07-27T07:17:07.504Z,6.63
2018-07-27T07:19:39.665Z,6.20
2018-07-27T07:22:11.731Z,5.73
2018-07-27T07:24:44.144Z,6.73
2018-07-27T07:27:16.590Z,6.17
2018-07-27T07:29:48.652Z,6.50
2018-07-27T07:32:20.717Z,6.00
2018-07-27T07:34:52.899Z,7.07
2018-07-27T07:37:24.740Z,5.73
2018-07-27T07:39:57.075Z,6.03
2018-07-27T07:42:29.104Z,6.33
2018-07-27T07:45:01.048Z,5.73
2018-07-27T07:47:33.017Z,6.40
2018-07-27T07:50:05.002Z,5.57
2018-07-27T07:52:37.240Z,6.33
2018-07-27T07:55:09.467Z,5.30
2018-07-27T07:57:41.618Z,5.50
2018-07-27T08:00:13.672Z,6.20
2018-07-27T08:02:45.624Z,5.60
2018-07-27T08:05:17.613Z,5.07
2018-07-27T08:07:49.697Z,5.20
2018-07-27T08:10:21.868Z,6.27
2018-07-27T08:12:54.125Z,6.33
2018-07-27T08:15:26.682Z,5.73
2018-07-27T08:17:59.385Z,5.50
2018-07-27T08:20:31.610Z,5.60
2018-07-27T08:23:04.034Z,5.70
2018-07-27T08:26:57.617Z,5.63
2018-07-27T08:29:32.033Z,5.70
2018-07-27T08:32:17.637Z,11.90
2018-07-27T08:34:51.212Z,6.33
2018-07-27T08:37:23.668Z,8.63
2018-07-27T08:39:55.937Z,7.07
2018-07-27T08:42:28.717Z,6.87
2018-07-27T08:45:00.312Z,5.90
2018-07-27T08:47:32.288Z,7.03
2018-07-27T08:50:04.378Z,6.40
2018-07-27T08:52:36.622Z,6.47
2018-07-27T08:55:08.811Z,5.90
2018-07-27T08:57:40.964Z,5.90
2018-07-27T09:00:13.206Z,5.13
2018-07-27T09:02:45.508Z,5.07
2018-07-27T09:05:17.917Z,5.17
2018-07-27T09:07:50.188Z,5.83
2018-07-27T09:10:22.533Z,5.73
2018-07-27T09:12:54.848Z,4.37
2018-07-27T09:15:26.921Z,4.50
2018-07-27T09:17:59.099Z,4.60
2018-07-27T09:20:31.453Z,4.67
2018-07-27T09:23:03.831Z,4.27
2018-07-27T09:25:35.125Z,4.57
2018-07-27T09:28:07.195Z,5.00
2018-07-27T09:30:39.414Z,4.90
2018-07-27T09:33:11.571Z,5.10
2018-07-27T09:35:43.778Z,4.73
2018-07-27T09:38:15.816Z,4.03
2018-07-27T09:40:48.148Z,4.63
2018-07-27T09:43:20.728Z,4.00
2018-07-27T09:45:52.823Z,4.30
2018-07-27T09:48:25.016Z,3.67
2018-07-27T09:50:58.917Z,5.00
2018-07-27T09:53:33.159Z,5.00
2018-07-27T09:56:05.568Z,4.63
2018-07-27T09:58:38.103Z,4.87
2018-07-27T10:01:14.936Z,4.20
2018-07-27T10:03:47.058Z,6.77
2018-07-27T10:06:19.031Z,11.30
2018-07-27T10:08:51.001Z,9.70
2018-07-27T10:11:23.344Z,18.97
2018-07-27T10:13:55.573Z,10.67
2018-07-27T10:16:27.759Z,4.60
2018-07-27T10:18:59.799Z,5.10
2018-07-27T10:21:31.782Z,3.70
2018-07-27T10:24:03.831Z,5.20
2018-07-27T10:26:35.958Z,4.07
2018-07-27T10:29:07.960Z,3.87
2018-07-27T10:31:40.159Z,3.87
2018-07-27T10:34:12.161Z,4.60
2018-07-27T10:36:44.164Z,4.30
2018-07-27T10:39:16.217Z,4.30
2018-07-27T10:41:48.347Z,4.40
2018-07-27T10:44:20.550Z,4.50
2018-07-27T10:46:52.605Z,4.43
2018-07-27T10:49:24.844Z,4.43
2018-07-27T10:51:57.256Z,3.97
2018-07-27T10:54:29.410Z,4.70
2018-07-27T10:57:01.527Z,4.73
2018-07-27T10:59:34.682Z,4.93
2018-07-27T11:02:06.841Z,5.23
2018-07-27T11:04:39.074Z,4.77
2018-07-27T11:07:11.318Z,5.13
2018-07-27T11:09:43.407Z,5.20
2018-07-27T11:12:15.509Z,5.00
2018-07-27T11:14:47.581Z,4.90
2018-07-27T11:17:19.646Z,4.20
2018-07-27T11:19:51.729Z,5.17
2018-07-27T11:22:24.164Z,5.10
2018-07-27T11:24:56.408Z,5.30
2018-07-27T11:27:28.489Z,4.80
2018-07-27T11:30:00.831Z,4.80
2018-07-27T11:32:33.168Z,5.20
2018-07-27T11:35:05.436Z,5.77
2018-07-27T11:37:37.507Z,5.63
2018-07-27T11:40:10.024Z,4.40
2018-07-27T11:42:42.158Z,4.53
2018-07-27T11:45:14.249Z,5.03
2018-07-27T11:47:46.336Z,5.30
2018-07-27T11:50:19.384Z,5.53
2018-07-27T11:52:51.534Z,5.80
2018-07-27T11:55:23.923Z,5.10
2018-07-27T11:57:56.292Z,4.90
2018-07-27T12:00:28.694Z,5.40
2018-07-27T12:03:00.774Z,5.30
2018-07-27T12:05:32.781Z,6.23
2018-07-27T12:08:05.195Z,5.50
2018-07-27T12:10:37.323Z,14.07
2018-07-27T12:13:09.509Z,56.97
2018-07-27T12:15:41.585Z,64.90
2018-07-27T12:18:13.786Z,46.43
2018-07-27T12:20:46.216Z,44.70
2018-07-27T12:23:18.322Z,35.60
2018-07-27T12:25:50.279Z,30.13
2018-07-27T12:28:22.456Z,28.30
2018-07-27T12:30:54.704Z,19.37
2018-07-27T12:33:26.807Z,17.20
2018-07-27T12:35:59.070Z,14.63
2018-07-27T12:38:31.292Z,12.10
2018-07-27T12:41:03.421Z,12.97
2018-07-27T12:43:35.435Z,12.00
2018-07-27T12:46:07.423Z,11.53
2018-07-27T12:48:39.612Z,9.67
2018-07-27T12:51:11.591Z,7.10
2018-07-27T12:53:43.890Z,9.37
2018-07-27T12:56:16.247Z,7.20
2018-07-27T12:58:48.507Z,6.53
2018-07-27T13:01:20.920Z,6.73
2018-07-27T13:03:53.060Z,6.20
2018-07-27T13:06:25.374Z,6.03
2018-07-27T13:08:57.730Z,5.93
2018-07-27T13:11:29.821Z,5.87
2018-07-27T13:14:02.026Z,5.77
2018-07-27T13:16:34.278Z,4.97
2018-07-27T13:19:05.649Z,5.50
2018-07-27T13:21:37.746Z,5.93
2018-07-27T13:24:09.172Z,5.60
2018-07-27T13:26:41.231Z,4.83
2018-07-27T13:29:13.355Z,5.30
2018-07-27T13:31:52.295Z,4.23
2018-07-27T13:34:43.783Z,5.10
2018-07-27T13:37:16.864Z,5.20
2018-07-27T13:39:50.027Z,4.73
2018-07-27T13:42:24.609Z,5.53
2018-07-27T13:44:56.952Z,4.17
2018-07-27T13:47:29.387Z,4.97
2018-07-27T13:50:01.720Z,4.67
2018-07-27T13:52:33.754Z,4.97
2018-07-27T13:55:06.050Z,4.60
2018-07-27T13:57:38.187Z,3.70
2018-07-27T14:00:10.417Z,4.30
2018-07-27T14:02:42.540Z,6.40
2018-07-27T14:05:14.598Z,12.97
2018-07-27T14:07:46.851Z,31.07
2018-07-27T14:10:19.050Z,43.07
2018-07-27T14:12:51.769Z,32.07
2018-07-27T14:15:23.964Z,37.40
2018-07-27T14:17:55.965Z,29.03
2018-07-27T14:20:28.065Z,27.23
2018-07-27T14:23:00.240Z,25.30
2018-07-27T14:25:32.502Z,23.10
2018-07-27T14:28:04.661Z,16.70
2018-07-27T14:30:36.264Z,15.60
2018-07-27T14:33:08.134Z,14.10
2018-07-27T14:35:40.171Z,14.40
2018-07-27T14:38:12.404Z,11.97
2018-07-27T14:40:44.613Z,10.43
2018-07-27T14:43:16.972Z,8.83
2018-07-27T14:45:49.172Z,9.83
2018-07-27T14:48:21.251Z,9.47
2018-07-27T14:50:54.339Z,9.00
2018-07-27T14:53:26.727Z,7.17
2018-07-27T14:55:58.654Z,6.77
2018-07-27T14:58:30.753Z,7.17
2018-07-27T15:01:02.936Z,5.70
2018-07-27T15:03:35.164Z,5.40
2018-07-27T15:06:07.000Z,6.40
2018-07-27T15:08:39.215Z,5.57
2018-07-27T15:11:11.267Z,5.30
2018-07-27T15:13:43.463Z,5.30
2018-07-27T15:16:15.469Z,5.10
2018-07-27T15:18:47.610Z,4.90
2018-07-27T15:21:19.998Z,4.93
2018-07-27T15:23:52.323Z,4.80
2018-07-27T15:26:24.604Z,5.70
2018-07-27T15:28:56.837Z,5.10
2018-07-27T15:31:28.944Z,4.23
2018-07-27T15:34:00.959Z,5.13
2018-07-27T15:36:33.100Z,4.53
2018-07-27T15:39:05.757Z,4.20
2018-07-27T15:41:38.829Z,4.60
2018-07-27T15:44:11.550Z,5.67
2018-07-27T15:46:43.667Z,4.60
2018-07-27T15:49:16.147Z,4.90
2018-07-27T15:51:48.348Z,5.03
2018-07-27T15:54:20.403Z,4.70
2018-07-27T15:56:51.898Z,4.70
2018-07-27T15:59:24.026Z,4.40
2018-07-27T16:01:56.173Z,5.47
2018-07-27T16:04:28.281Z,4.90
2018-07-27T16:07:15.117Z,6.60
2018-07-27T16:09:49.568Z,9.77
2018-07-27T16:12:22.457Z,9.60
2018-07-27T16:14:55.440Z,10.10
2018-07-27T16:17:27.643Z,6.83
2018-07-27T16:19:59.680Z,8.87
2018-07-27T16:22:32.319Z,5.73
2018-07-27T16:25:04.699Z,7.00
2018-07-27T16:27:36.875Z,33.20
2018-07-27T16:30:09.220Z,14.53
2018-07-27T16:32:41.404Z,42.57
2018-07-27T16:35:13.533Z,26.87
2018-07-27T16:37:45.653Z,10.00
2018-07-27T16:40:17.819Z,9.40
2018-07-27T16:42:49.843Z,9.00
2018-07-27T16:45:22.103Z,9.17
2018-07-27T16:47:54.340Z,10.17
2018-07-27T16:50:26.461Z,9.10
2018-07-27T16:52:58.749Z,9.10
2018-07-27T16:55:40.870Z,8.37
2018-07-27T16:58:14.117Z,7.17
2018-07-27T17:00:46.325Z,7.53
2018-07-27T17:03:18.640Z,6.53
2018-07-27T17:05:50.813Z,8.33
2018-07-27T17:08:22.808Z,7.97
2018-07-27T17:10:56.301Z,6.70
2018-07-27T17:13:42.050Z,8.30
2018-07-27T17:16:14.119Z,7.00
2018-07-27T17:18:46.379Z,6.03
2018-07-27T17:21:19.028Z,6.90
2018-07-27T17:23:51.132Z,6.40
2018-07-27T17:26:23.677Z,7.10
2018-07-27T17:28:55.878Z,6.63
2018-07-27T17:31:28.558Z,6.50
2018-07-27T17:34:00.831Z,6.23
2018-07-27T17:36:32.920Z,7.07
2018-07-27T17:39:07.138Z,7.07
2018-07-27T17:41:39.621Z,5.90
2018-07-27T17:44:11.646Z,6.17
2018-07-27T17:46:43.859Z,7.23
2018-07-27T17:49:16.039Z,7.20
2018-07-27T17:51:48.179Z,6.60
2018-07-27T17:54:20.331Z,7.20
2018-07-27T17:56:52.487Z,6.83
2018-07-27T17:59:24.766Z,7.03
2018-07-27T18:01:57.431Z,7.17
2018-07-27T18:04:29.648Z,6.73
2018-07-27T18:07:01.665Z,7.10
2018-07-27T18:09:33.827Z,6.87
2018-07-27T18:12:05.999Z,7.13
2018-07-27T18:14:38.192Z,6.63
2018-07-27T18:17:10.430Z,7.13
2018-07-27T18:19:42.632Z,7.13
2018-07-27T18:22:14.934Z,8.33
2018-07-27T18:24:47.176Z,6.50
2018-07-27T18:27:20.043Z,6.70
2018-07-27T18:29:53.136Z,7.67
2018-07-27T18:32:25.382Z,6.73
2018-07-27T18:34:57.420Z,7.10
2018-07-27T18:37:29.875Z,7.80
2018-07-27T18:40:02.634Z,7.17
2018-07-27T18:42:34.820Z,6.50
2018-07-27T18:45:19.421Z,7.40
2018-07-27T18:47:51.620Z,7.13
2018-07-27T18:50:23.893Z,7.40
2018-07-27T18:52:56.066Z,7.80
2018-07-27T18:55:28.337Z,7.13
2018-07-27T18:58:00.504Z,7.70
2018-07-27T19:00:32.651Z,7.33
2018-07-27T19:03:05.055Z,7.40
2018-07-27T19:05:37.298Z,7.70
2018-07-27T19:08:09.455Z,7.40
2018-07-27T19:10:41.757Z,8.37
2018-07-27T19:13:13.888Z,6.67
2018-07-27T19:15:46.055Z,6.90
2018-07-27T19:18:18.158Z,6.83
2018-07-27T19:20:50.330Z,7.43
2018-07-27T19:23:22.647Z,6.90
2018-07-27T19:25:54.854Z,7.23
2018-07-27T19:28:27.049Z,7.40
2018-07-27T19:30:59.316Z,7.47
2018-07-27T19:33:31.469Z,7.47
2018-07-27T19:36:03.657Z,7.30
2018-07-27T19:38:35.805Z,7.23
2018-07-27T19:41:07.899Z,6.67
2018-07-27T19:43:40.107Z,6.90
2018-07-27T19:46:12.259Z,6.50
2018-07-27T19:48:44.669Z,7.87
2018-07-27T19:51:16.756Z,7.30
2018-07-27T19:53:48.836Z,7.17
2018-07-27T19:56:21.059Z,7.07
2018-07-27T19:59:56.633Z,6.80
2018-07-27T20:02:28.823Z,6.80
2018-07-27T20:05:01.082Z,7.80
2018-07-27T20:07:33.247Z,6.77
2018-07-27T20:10:05.878Z,6.90
2018-07-27T20:12:38.281Z,7.03
2018-07-27T20:15:10.531Z,6.40
2018-07-27T20:17:42.702Z,8.60
2018-07-27T20:20:15.000Z,6.70
2018-07-27T20:22:47.324Z,8.37
2018-07-27T20:25:19.597Z,7.80
2018-07-27T20:27:51.885Z,7.70
2018-07-27T20:30:23.987Z,6.57
2018-07-27T20:32:55.815Z,7.50
2018-07-27T20:35:27.914Z,7.23
2018-07-27T20:37:59.883Z,7.90
2018-07-27T20:40:32.029Z,8.10
2018-07-27T20:43:04.175Z,7.83
2018-07-27T20:45:37.237Z,8.90
2018-07-27T20:48:09.390Z,8.20
2018-07-27T20:50:41.734Z,8.13
2018-07-27T20:53:13.634Z,7.90
2018-07-27T20:55:45.750Z,8.30
2018-07-27T20:58:17.917Z,8.40
2018-07-27T21:00:49.818Z,7.83
2018-07-27T21:03:21.918Z,8.70
2018-07-27T21:05:54.075Z,7.80
2018-07-27T21:08:25.968Z,8.67
2018-07-27T21:10:58.152Z,8.30
2018-07-27T21:13:30.459Z,8.63
2018-07-27T21:16:03.130Z,7.53
2018-07-27T21:18:35.747Z,8.93
2018-07-27T21:21:08.309Z,8.37
2018-07-27T21:23:40.455Z,8.67
2018-07-27T21:26:12.593Z,8.70
2018-07-27T21:28:44.787Z,8.40
2018-07-27T21:31:16.889Z,8.50
2018-07-27T21:33:49.116Z,8.20
2018-07-27T21:36:21.251Z,8.60
2018-07-27T21:38:53.539Z,8.20
2018-07-27T21:41:25.786Z,7.17
2018-07-27T21:43:58.042Z,8.40
2018-07-27T21:46:30.335Z,8.40
2018-07-27T21:49:02.558Z,8.10
2018-07-27T21:51:34.664Z,8.40
2018-07-27T21:54:07.002Z,8.30
2018-07-27T21:56:39.164Z,8.30
2018-07-27T21:59:11.376Z,7.40
2018-07-27T22:01:43.677Z,7.80
2018-07-27T22:04:16.089Z,8.37
2018-07-27T22:06:48.429Z,8.50
2018-07-27T22:09:19.690Z,8.60
2018-07-27T22:11:51.746Z,7.43
2018-07-27T22:14:23.788Z,7.60
2018-07-27T22:16:56.226Z,8.03
2018-07-27T22:19:28.252Z,9.03
2018-07-27T22:22:00.620Z,8.37
2018-07-27T22:24:32.879Z,8.53
2018-07-27T22:27:04.978Z,8.50
2018-07-27T22:29:37.011Z,9.53
2018-07-27T22:32:08.918Z,7.20
2018-07-27T22:34:41.052Z,7.60
2018-07-27T22:37:13.186Z,7.73
2018-07-27T22:39:45.418Z,8.83
2018-07-27T22:42:17.706Z,7.60
2018-07-27T22:44:50.106Z,8.00
2018-07-27T22:47:22.468Z,7.63
2018-07-27T22:49:54.838Z,8.17
2018-07-27T22:52:27.066Z,7.50
2018-07-27T22:54:59.130Z,7.20
2018-07-27T22:57:31.303Z,8.20
2018-07-27T23:00:03.557Z,8.23
2018-07-27T23:02:35.707Z,7.90
2018-07-27T23:05:08.018Z,7.13
2018-07-27T23:07:40.194Z,6.93
2018-07-27T23:10:12.406Z,7.50
2018-07-27T23:12:44.581Z,8.50
2018-07-27T23:15:16.874Z,7.20
2018-07-27T23:17:49.094Z,7.60
2018-07-27T23:20:21.047Z,8.77
2018-07-27T23:22:53.149Z,8.00
2018-07-27T23:25:25.435Z,7.77
2018-07-27T23:27:57.400Z,7.00
2018-07-27T23:30:29.485Z,7.73
2018-07-27T23:33:01.559Z,7.40
2018-07-27T23:35:33.806Z,8.97
2018-07-27T23:38:05.974Z,7.87
2018-07-27T23:40:38.279Z,8.07
2018-07-27T23:43:10.345Z,8.97
2018-07-27T23:45:42.271Z,7.63
2018-07-27T23:48:14.477Z,7.53
2018-07-27T23:50:46.568Z,8.07
2018-07-27T23:53:18.607Z,8.30
2018-07-27T23:55:50.626Z,7.50
2018-07-27T23:58:22.960Z,7.97
